sensor_id;sensor_type;location;lat;lon;timestamp;P1;durP1;ratioP1;P2;durP2;ratioP2
11960;SDS011;6040;49.358;11.140;2024-01-27T00:02:13;5.57;;;1.63;;
11960;SDS011;6040;49.358;11.140;2024-01-27T00:04:41;2.67;;;1.73;;
11960;SDS011;6040;49.358;11.140;2024-01-27T00:07:08;6.13;;;2.20;;
11960;SDS011;6040;49.358;11.140;2024-01-27T00:09:36;3.00;;;1.93;;
11960;SDS011;6040;49.358;11.140;2024-01-27T00:12:06;3.63;;;1.60;;
11960;SDS011;6040;49.358;11.140;2024-01-27T00:14:33;9.63;;;2.00;;
11960;SDS011;6040;49.358;11.140;2024-01-27T00:17:06;3.23;;;1.60;;
11960;SDS011;6040;49.358;11.140;2024-01-27T00:19:33;6.50;;;1.70;;
11960;SDS011;6040;49.358;11.140;2024-01-27T00:22:00;3.40;;;1.67;;
11960;SDS011;6040;49.358;11.140;2024-01-27T00:24:27;4.00;;;1.67;;
11960;SDS011;6040;49.358;11.140;2024-01-27T00:26:55;7.53;;;2.23;;
11960;SDS011;6040;49.358;11.140;2024-01-27T00:29:22;3.40;;;1.60;;
11960;SDS011;6040;49.358;11.140;2024-01-27T00:31:49;5.57;;;2.13;;
11960;SDS011;6040;49.358;11.140;2024-01-27T00:34:16;6.27;;;1.63;;
11960;SDS011;6040;49.358;11.140;2024-01-27T00:36:43;4.80;;;1.63;;
11960;SDS011;6040;49.358;11.140;2024-01-27T00:39:13;5.23;;;1.80;;
11960;SDS011;6040;49.358;11.140;2024-01-27T00:41:40;6.63;;;1.93;;
11960;SDS011;6040;49.358;11.140;2024-01-27T00:44:09;4.87;;;1.63;;
11960;SDS011;6040;49.358;11.140;2024-01-27T00:46:36;9.83;;;2.30;;
11960;SDS011;6040;49.358;11.140;2024-01-27T00:49:03;4.53;;;1.57;;
11960;SDS011;6040;49.358;11.140;2024-01-27T00:51:30;7.47;;;1.87;;
11960;SDS011;6040;49.358;11.140;2024-01-27T00:53:57;7.10;;;1.67;;
11960;SDS011;6040;49.358;11.140;2024-01-27T00:56:24;6.10;;;1.93;;
11960;SDS011;6040;49.358;11.140;2024-01-27T00:58:50;6.60;;;1.77;;
11960;SDS011;6040;49.358;11.140;2024-01-27T01:01:18;2.60;;;1.47;;
11960;SDS011;6040;49.358;11.140;2024-01-27T01:03:45;3.87;;;1.83;;
11960;SDS011;6040;49.358;11.140;2024-01-27T01:06:12;3.17;;;1.57;;
11960;SDS011;6040;49.358;11.140;2024-01-27T01:08:39;9.03;;;2.03;;
11960;SDS011;6040;49.358;11.140;2024-01-27T01:11:06;6.00;;;2.03;;
11960;SDS011;6040;49.358;11.140;2024-01-27T01:13:33;9.57;;;2.13;;
11960;SDS011;6040;49.358;11.140;2024-01-27T01:16:00;5.00;;;1.80;;
11960;SDS011;6040;49.358;11.140;2024-01-27T01:18:29;7.60;;;2.13;;
11960;SDS011;6040;49.358;11.140;2024-01-27T01:20:56;4.13;;;1.83;;
11960;SDS011;6040;49.358;11.140;2024-01-27T01:23:23;3.13;;;1.50;;
11960;SDS011;6040;49.358;11.140;2024-01-27T01:25:50;6.73;;;2.10;;
11960;SDS011;6040;49.358;11.140;2024-01-27T01:28:17;2.57;;;1.73;;
11960;SDS011;6040;49.358;11.140;2024-01-27T01:30:43;3.63;;;1.37;;
11960;SDS011;6040;49.358;11.140;2024-01-27T01:33:10;3.40;;;1.23;;
11960;SDS011;6040;49.358;11.140;2024-01-27T01:35:39;4.33;;;1.50;;
11960;SDS011;6040;49.358;11.140;2024-01-27T01:38:06;4.10;;;1.37;;
11960;SDS011;6040;49.358;11.140;2024-01-27T01:40:32;2.73;;;1.50;;
11960;SDS011;6040;49.358;11.140;2024-01-27T01:42:59;2.97;;;1.50;;
11960;SDS011;6040;49.358;11.140;2024-01-27T01:45:26;5.07;;;1.70;;
11960;SDS011;6040;49.358;11.140;2024-01-27T01:47:53;3.10;;;1.63;;
11960;SDS011;6040;49.358;11.140;2024-01-27T01:50:20;3.17;;;1.40;;
11960;SDS011;6040;49.358;11.140;2024-01-27T01:52:48;2.70;;;1.40;;
11960;SDS011;6040;49.358;11.140;2024-01-27T01:55:18;3.17;;;1.13;;
11960;SDS011;6040;49.358;11.140;2024-01-27T01:57:44;4.33;;;1.70;;
11960;SDS011;6040;49.358;11.140;2024-01-27T02:00:14;2.50;;;1.20;;
11960;SDS011;6040;49.358;11.140;2024-01-27T02:02:42;1.63;;;1.23;;
11960;SDS011;6040;49.358;11.140;2024-01-27T02:05:09;3.33;;;1.33;;
11960;SDS011;6040;49.358;11.140;2024-01-27T02:07:37;3.87;;;1.30;;
11960;SDS011;6040;49.358;11.140;2024-01-27T02:10:05;3.60;;;1.73;;
11960;SDS011;6040;49.358;11.140;2024-01-27T02:12:38;5.67;;;2.00;;
11960;SDS011;6040;49.358;11.140;2024-01-27T02:15:05;5.00;;;2.00;;
11960;SDS011;6040;49.358;11.140;2024-01-27T02:17:36;6.33;;;1.73;;
11960;SDS011;6040;49.358;11.140;2024-01-27T02:20:03;6.50;;;1.60;;
11960;SDS011;6040;49.358;11.140;2024-01-27T02:22:31;5.83;;;1.70;;
11960;SDS011;6040;49.358;11.140;2024-01-27T02:24:59;2.00;;;1.57;;
11960;SDS011;6040;49.358;11.140;2024-01-27T02:27:26;3.23;;;1.60;;
11960;SDS011;6040;49.358;11.140;2024-01-27T02:29:53;5.93;;;1.80;;
11960;SDS011;6040;49.358;11.140;2024-01-27T02:32:20;4.27;;;1.70;;
11960;SDS011;6040;49.358;11.140;2024-01-27T02:34:47;1.63;;;1.43;;
11960;SDS011;6040;49.358;11.140;2024-01-27T02:37:14;7.67;;;2.00;;
11960;SDS011;6040;49.358;11.140;2024-01-27T02:39:40;5.30;;;1.60;;
11960;SDS011;6040;49.358;11.140;2024-01-27T02:42:08;2.83;;;1.43;;
11960;SDS011;6040;49.358;11.140;2024-01-27T02:44:35;5.20;;;1.50;;
11960;SDS011;6040;49.358;11.140;2024-01-27T02:47:02;7.57;;;1.90;;
11960;SDS011;6040;49.358;11.140;2024-01-27T02:49:29;5.47;;;1.97;;
11960;SDS011;6040;49.358;11.140;2024-01-27T02:51:56;6.73;;;1.57;;
11960;SDS011;6040;49.358;11.140;2024-01-27T02:54:23;3.63;;;1.80;;
11960;SDS011;6040;49.358;11.140;2024-01-27T02:56:49;2.57;;;1.50;;
11960;SDS011;6040;49.358;11.140;2024-01-27T02:59:18;4.53;;;1.50;;
11960;SDS011;6040;49.358;11.140;2024-01-27T03:01:44;4.47;;;2.00;;
11960;SDS011;6040;49.358;11.140;2024-01-27T03:04:11;3.63;;;1.70;;
11960;SDS011;6040;49.358;11.140;2024-01-27T03:06:38;4.37;;;1.97;;
11960;SDS011;6040;49.358;11.140;2024-01-27T03:09:05;3.43;;;1.73;;
11960;SDS011;6040;49.358;11.140;2024-01-27T03:11:32;2.07;;;1.60;;
11960;SDS011;6040;49.358;11.140;2024-01-27T03:13:58;4.23;;;2.00;;
11960;SDS011;6040;49.358;11.140;2024-01-27T03:16:27;8.20;;;2.37;;
11960;SDS011;6040;49.358;11.140;2024-01-27T03:18:54;5.83;;;2.13;;
11960;SDS011;6040;49.358;11.140;2024-01-27T03:21:21;12.93;;;2.17;;
11960;SDS011;6040;49.358;11.140;2024-01-27T03:23:47;9.83;;;1.83;;
11960;SDS011;6040;49.358;11.140;2024-01-27T03:26:14;4.80;;;1.70;;
11960;SDS011;6040;49.358;11.140;2024-01-27T03:28:41;5.97;;;1.87;;
11960;SDS011;6040;49.358;11.140;2024-01-27T03:31:07;5.53;;;2.10;;
11960;SDS011;6040;49.358;11.140;2024-01-27T03:33:35;10.67;;;2.47;;
11960;SDS011;6040;49.358;11.140;2024-01-27T03:36:02;2.77;;;1.50;;
11960;SDS011;6040;49.358;11.140;2024-01-27T03:38:29;5.33;;;2.20;;
11960;SDS011;6040;49.358;11.140;2024-01-27T03:40:55;5.37;;;1.80;;
11960;SDS011;6040;49.358;11.140;2024-01-27T03:43:23;3.80;;;2.03;;
11960;SDS011;6040;49.358;11.140;2024-01-27T03:45:50;5.80;;;1.70;;
11960;SDS011;6040;49.358;11.140;2024-01-27T03:48:17;4.50;;;1.83;;
11960;SDS011;6040;49.358;11.140;2024-01-27T03:50:45;3.67;;;1.80;;
11960;SDS011;6040;49.358;11.140;2024-01-27T03:53:12;4.37;;;1.77;;
11960;SDS011;6040;49.358;11.140;2024-01-27T03:55:39;3.37;;;1.80;;
11960;SDS011;6040;49.358;11.140;2024-01-27T03:58:06;4.73;;;1.67;;
11960;SDS011;6040;49.358;11.140;2024-01-27T04:00:33;1.60;;;1.30;;
11960;SDS011;6040;49.358;11.140;2024-01-27T04:03:00;1.60;;;1.50;;
11960;SDS011;6040;49.358;11.140;2024-01-27T04:05:27;4.00;;;1.40;;
11960;SDS011;6040;49.358;11.140;2024-01-27T04:07:56;7.20;;;1.67;;
11960;SDS011;6040;49.358;11.140;2024-01-27T04:10:23;6.77;;;1.60;;
11960;SDS011;6040;49.358;11.140;2024-01-27T04:12:50;2.97;;;1.53;;
11960;SDS011;6040;49.358;11.140;2024-01-27T04:15:17;7.73;;;1.70;;
11960;SDS011;6040;49.358;11.140;2024-01-27T04:17:43;4.50;;;1.50;;
11960;SDS011;6040;49.358;11.140;2024-01-27T04:20:11;4.80;;;1.70;;
11960;SDS011;6040;49.358;11.140;2024-01-27T04:22:38;5.03;;;1.50;;
11960;SDS011;6040;49.358;11.140;2024-01-27T04:25:07;5.03;;;1.60;;
11960;SDS011;6040;49.358;11.140;2024-01-27T04:27:36;3.53;;;1.73;;
11960;SDS011;6040;49.358;11.140;2024-01-27T04:30:04;2.73;;;1.83;;
11960;SDS011;6040;49.358;11.140;2024-01-27T04:32:32;4.37;;;2.00;;
11960;SDS011;6040;49.358;11.140;2024-01-27T04:34:59;2.20;;;1.33;;
11960;SDS011;6040;49.358;11.140;2024-01-27T04:37:26;4.43;;;1.80;;
11960;SDS011;6040;49.358;11.140;2024-01-27T04:39:52;2.47;;;1.37;;
11960;SDS011;6040;49.358;11.140;2024-01-27T04:42:21;6.90;;;1.97;;
11960;SDS011;6040;49.358;11.140;2024-01-27T04:44:47;3.30;;;1.47;;
11960;SDS011;6040;49.358;11.140;2024-01-27T04:47:14;2.97;;;1.50;;
11960;SDS011;6040;49.358;11.140;2024-01-27T04:49:42;1.83;;;1.40;;
11960;SDS011;6040;49.358;11.140;2024-01-27T04:52:08;1.30;;;1.20;;
11960;SDS011;6040;49.358;11.140;2024-01-27T04:54:35;3.20;;;1.57;;
11960;SDS011;6040;49.358;11.140;2024-01-27T04:57:02;3.90;;;1.90;;
11960;SDS011;6040;49.358;11.140;2024-01-27T04:59:31;5.50;;;1.97;;
11960;SDS011;6040;49.358;11.140;2024-01-27T05:01:58;3.40;;;1.50;;
11960;SDS011;6040;49.358;11.140;2024-01-27T05:04:25;5.33;;;1.80;;
11960;SDS011;6040;49.358;11.140;2024-01-27T05:06:52;4.03;;;2.23;;
11960;SDS011;6040;49.358;11.140;2024-01-27T05:09:18;6.20;;;2.10;;
11960;SDS011;6040;49.358;11.140;2024-01-27T05:11:45;2.20;;;1.47;;
11960;SDS011;6040;49.358;11.140;2024-01-27T05:14:13;2.47;;;1.30;;
11960;SDS011;6040;49.358;11.140;2024-01-27T05:16:42;8.23;;;2.10;;
11960;SDS011;6040;49.358;11.140;2024-01-27T05:19:09;4.03;;;2.00;;
11960;SDS011;6040;49.358;11.140;2024-01-27T05:21:37;6.60;;;2.07;;
11960;SDS011;6040;49.358;11.140;2024-01-27T05:24:04;5.23;;;2.03;;
11960;SDS011;6040;49.358;11.140;2024-01-27T05:26:31;1.83;;;1.43;;
11960;SDS011;6040;49.358;11.140;2024-01-27T05:28:58;2.27;;;1.50;;
11960;SDS011;6040;49.358;11.140;2024-01-27T05:31:25;8.47;;;2.33;;
11960;SDS011;6040;49.358;11.140;2024-01-27T05:33:53;9.23;;;2.63;;
11960;SDS011;6040;49.358;11.140;2024-01-27T05:36:20;4.47;;;1.50;;
11960;SDS011;6040;49.358;11.140;2024-01-27T05:38:47;6.07;;;1.87;;
11960;SDS011;6040;49.358;11.140;2024-01-27T05:41:13;2.80;;;2.10;;
11960;SDS011;6040;49.358;11.140;2024-01-27T05:43:40;3.70;;;1.63;;
11960;SDS011;6040;49.358;11.140;2024-01-27T05:46:08;3.23;;;1.90;;
11960;SDS011;6040;49.358;11.140;2024-01-27T05:48:35;4.17;;;1.90;;
11960;SDS011;6040;49.358;11.140;2024-01-27T05:51:03;7.23;;;2.33;;
11960;SDS011;6040;49.358;11.140;2024-01-27T05:53:30;3.17;;;1.60;;
11960;SDS011;6040;49.358;11.140;2024-01-27T05:55:57;2.80;;;2.10;;
11960;SDS011;6040;49.358;11.140;2024-01-27T05:58:23;4.60;;;1.97;;
11960;SDS011;6040;49.358;11.140;2024-01-27T06:00:50;6.30;;;2.53;;
11960;SDS011;6040;49.358;11.140;2024-01-27T06:03:17;3.93;;;1.90;;
11960;SDS011;6040;49.358;11.140;2024-01-27T06:05:44;6.30;;;2.77;;
11960;SDS011;6040;49.358;11.140;2024-01-27T06:08:12;3.80;;;1.90;;
11960;SDS011;6040;49.358;11.140;2024-01-27T06:10:39;3.17;;;1.80;;
11960;SDS011;6040;49.358;11.140;2024-01-27T06:13:06;3.20;;;2.07;;
11960;SDS011;6040;49.358;11.140;2024-01-27T06:15:33;3.43;;;1.83;;
11960;SDS011;6040;49.358;11.140;2024-01-27T06:18:00;4.73;;;1.77;;
11960;SDS011;6040;49.358;11.140;2024-01-27T06:20:26;6.83;;;2.30;;
11960;SDS011;6040;49.358;11.140;2024-01-27T06:22:53;3.67;;;1.77;;
11960;SDS011;6040;49.358;11.140;2024-01-27T06:25:21;4.10;;;2.17;;
11960;SDS011;6040;49.358;11.140;2024-01-27T06:27:48;6.73;;;2.23;;
11960;SDS011;6040;49.358;11.140;2024-01-27T06:30:15;6.70;;;2.47;;
11960;SDS011;6040;49.358;11.140;2024-01-27T06:32:43;4.50;;;2.27;;
11960;SDS011;6040;49.358;11.140;2024-01-27T06:35:10;4.40;;;2.43;;
11960;SDS011;6040;49.358;11.140;2024-01-27T06:37:36;12.23;;;2.93;;
11960;SDS011;6040;49.358;11.140;2024-01-27T06:40:03;4.33;;;1.90;;
11960;SDS011;6040;49.358;11.140;2024-01-27T06:42:32;5.67;;;2.70;;
11960;SDS011;6040;49.358;11.140;2024-01-27T06:44:59;6.13;;;2.67;;
11960;SDS011;6040;49.358;11.140;2024-01-27T06:47:26;5.67;;;2.40;;
11960;SDS011;6040;49.358;11.140;2024-01-27T06:49:53;3.50;;;2.30;;
11960;SDS011;6040;49.358;11.140;2024-01-27T06:52:19;3.97;;;2.33;;
11960;SDS011;6040;49.358;11.140;2024-01-27T06:54:46;3.33;;;2.70;;
11960;SDS011;6040;49.358;11.140;2024-01-27T06:57:19;6.63;;;3.00;;
11960;SDS011;6040;49.358;11.140;2024-01-27T06:59:48;6.97;;;2.67;;
11960;SDS011;6040;49.358;11.140;2024-01-27T07:02:17;4.00;;;2.60;;
11960;SDS011;6040;49.358;11.140;2024-01-27T07:04:45;8.37;;;3.50;;
11960;SDS011;6040;49.358;11.140;2024-01-27T07:07:12;9.37;;;3.40;;
11960;SDS011;6040;49.358;11.140;2024-01-27T07:09:38;9.93;;;3.23;;
11960;SDS011;6040;49.358;11.140;2024-01-27T07:12:05;9.40;;;3.03;;
11960;SDS011;6040;49.358;11.140;2024-01-27T07:14:34;7.70;;;3.30;;
11960;SDS011;6040;49.358;11.140;2024-01-27T07:17:03;8.00;;;3.60;;
11960;SDS011;6040;49.358;11.140;2024-01-27T07:19:30;7.27;;;3.10;;
11960;SDS011;6040;49.358;11.140;2024-01-27T07:21:57;7.67;;;3.10;;
11960;SDS011;6040;49.358;11.140;2024-01-27T07:24:24;9.83;;;3.13;;
11960;SDS011;6040;49.358;11.140;2024-01-27T07:26:51;6.23;;;3.03;;
11960;SDS011;6040;49.358;11.140;2024-01-27T07:29:18;8.03;;;3.03;;
11960;SDS011;6040;49.358;11.140;2024-01-27T07:31:45;8.80;;;3.30;;
11960;SDS011;6040;49.358;11.140;2024-01-27T07:34:14;6.23;;;3.00;;
11960;SDS011;6040;49.358;11.140;2024-01-27T07:36:40;5.83;;;3.00;;
11960;SDS011;6040;49.358;11.140;2024-01-27T07:39:08;6.20;;;2.57;;
11960;SDS011;6040;49.358;11.140;2024-01-27T07:41:35;6.50;;;3.60;;
11960;SDS011;6040;49.358;11.140;2024-01-27T07:44:08;6.73;;;3.30;;
11960;SDS011;6040;49.358;11.140;2024-01-27T07:46:36;8.43;;;4.13;;
11960;SDS011;6040;49.358;11.140;2024-01-27T07:49:03;10.30;;;4.70;;
11960;SDS011;6040;49.358;11.140;2024-01-27T07:51:31;8.50;;;4.63;;
11960;SDS011;6040;49.358;11.140;2024-01-27T07:53:58;11.43;;;5.07;;
11960;SDS011;6040;49.358;11.140;2024-01-27T07:56:25;12.10;;;5.57;;
11960;SDS011;6040;49.358;11.140;2024-01-27T07:58:52;10.93;;;5.03;;
11960;SDS011;6040;49.358;11.140;2024-01-27T08:01:19;9.13;;;4.33;;
11960;SDS011;6040;49.358;11.140;2024-01-27T08:03:46;7.00;;;3.80;;
11960;SDS011;6040;49.358;11.140;2024-01-27T08:06:15;7.23;;;3.97;;
11960;SDS011;6040;49.358;11.140;2024-01-27T08:08:45;8.53;;;4.57;;
11960;SDS011;6040;49.358;11.140;2024-01-27T08:11:12;10.67;;;4.27;;
11960;SDS011;6040;49.358;11.140;2024-01-27T08:13:39;9.77;;;4.83;;
11960;SDS011;6040;49.358;11.140;2024-01-27T08:16:06;7.20;;;3.70;;
11960;SDS011;6040;49.358;11.140;2024-01-27T08:18:34;9.53;;;4.00;;
11960;SDS011;6040;49.358;11.140;2024-01-27T08:21:04;12.13;;;4.27;;
11960;SDS011;6040;49.358;11.140;2024-01-27T08:23:30;7.00;;;3.90;;
11960;SDS011;6040;49.358;11.140;2024-01-27T08:25:59;8.83;;;4.43;;
11960;SDS011;6040;49.358;11.140;2024-01-27T08:28:25;6.47;;;4.00;;
11960;SDS011;6040;49.358;11.140;2024-01-27T08:30:52;8.90;;;3.73;;
11960;SDS011;6040;49.358;11.140;2024-01-27T08:33:19;13.13;;;3.90;;
11960;SDS011;6040;49.358;11.140;2024-01-27T08:35:46;10.97;;;3.47;;
11960;SDS011;6040;49.358;11.140;2024-01-27T08:38:13;10.63;;;4.00;;
11960;SDS011;6040;49.358;11.140;2024-01-27T08:40:40;6.90;;;3.63;;
11960;SDS011;6040;49.358;11.140;2024-01-27T08:43:09;7.70;;;4.60;;
11960;SDS011;6040;49.358;11.140;2024-01-27T08:45:36;7.23;;;4.40;;
11960;SDS011;6040;49.358;11.140;2024-01-27T08:48:05;8.70;;;4.93;;
11960;SDS011;6040;49.358;11.140;2024-01-27T08:50:32;7.83;;;4.50;;
11960;SDS011;6040;49.358;11.140;2024-01-27T08:52:59;9.50;;;4.40;;
11960;SDS011;6040;49.358;11.140;2024-01-27T08:55:26;7.23;;;4.30;;
11960;SDS011;6040;49.358;11.140;2024-01-27T08:57:53;10.33;;;4.40;;
11960;SDS011;6040;49.358;11.140;2024-01-27T09:00:22;8.47;;;3.63;;
11960;SDS011;6040;49.358;11.140;2024-01-27T09:02:49;7.37;;;3.77;;
11960;SDS011;6040;49.358;11.140;2024-01-27T09:05:16;10.37;;;3.63;;
11960;SDS011;6040;49.358;11.140;2024-01-27T09:07:43;6.63;;;3.50;;
11960;SDS011;6040;49.358;11.140;2024-01-27T09:10:11;6.97;;;3.30;;
11960;SDS011;6040;49.358;11.140;2024-01-27T09:12:40;7.80;;;3.90;;
11960;SDS011;6040;49.358;11.140;2024-01-27T09:15:07;9.80;;;3.80;;
11960;SDS011;6040;49.358;11.140;2024-01-27T09:17:35;7.60;;;4.13;;
11960;SDS011;6040;49.358;11.140;2024-01-27T09:20:02;9.27;;;5.27;;
11960;SDS011;6040;49.358;11.140;2024-01-27T09:22:30;11.40;;;4.90;;
11960;SDS011;6040;49.358;11.140;2024-01-27T09:24:56;7.47;;;4.33;;
11960;SDS011;6040;49.358;11.140;2024-01-27T09:27:23;6.90;;;3.70;;
11960;SDS011;6040;49.358;11.140;2024-01-27T09:29:50;11.23;;;3.83;;
11960;SDS011;6040;49.358;11.140;2024-01-27T09:32:17;8.17;;;3.50;;
11960;SDS011;6040;49.358;11.140;2024-01-27T09:34:45;7.70;;;3.50;;
11960;SDS011;6040;49.358;11.140;2024-01-27T09:37:12;10.40;;;3.40;;
11960;SDS011;6040;49.358;11.140;2024-01-27T09:39:39;9.90;;;3.43;;
11960;SDS011;6040;49.358;11.140;2024-01-27T09:42:06;7.43;;;3.97;;
11960;SDS011;6040;49.358;11.140;2024-01-27T09:44:38;7.43;;;3.50;;
11960;SDS011;6040;49.358;11.140;2024-01-27T09:47:07;8.07;;;4.10;;
11960;SDS011;6040;49.358;11.140;2024-01-27T09:49:34;10.97;;;3.73;;
11960;SDS011;6040;49.358;11.140;2024-01-27T09:52:05;11.93;;;4.17;;
11960;SDS011;6040;49.358;11.140;2024-01-27T09:54:33;7.27;;;3.43;;
11960;SDS011;6040;49.358;11.140;2024-01-27T09:57:00;11.23;;;3.47;;
11960;SDS011;6040;49.358;11.140;2024-01-27T09:59:28;8.80;;;3.27;;
11960;SDS011;6040;49.358;11.140;2024-01-27T10:01:55;9.50;;;3.33;;
11960;SDS011;6040;49.358;11.140;2024-01-27T10:04:24;11.87;;;3.50;;
11960;SDS011;6040;49.358;11.140;2024-01-27T10:06:51;12.90;;;3.37;;
11960;SDS011;6040;49.358;11.140;2024-01-27T10:09:20;9.47;;;3.27;;
11960;SDS011;6040;49.358;11.140;2024-01-27T10:11:47;7.00;;;3.03;;
11960;SDS011;6040;49.358;11.140;2024-01-27T10:14:14;9.03;;;2.70;;
11960;SDS011;6040;49.358;11.140;2024-01-27T10:16:41;11.13;;;3.23;;
11960;SDS011;6040;49.358;11.140;2024-01-27T10:19:12;7.43;;;2.30;;
11960;SDS011;6040;49.358;11.140;2024-01-27T10:21:42;6.93;;;2.50;;
11960;SDS011;6040;49.358;11.140;2024-01-27T10:24:08;7.90;;;2.37;;
11960;SDS011;6040;49.358;11.140;2024-01-27T10:26:37;9.87;;;2.60;;
11960;SDS011;6040;49.358;11.140;2024-01-27T10:29:03;7.73;;;2.60;;
11960;SDS011;6040;49.358;11.140;2024-01-27T10:31:31;10.60;;;2.70;;
11960;SDS011;6040;49.358;11.140;2024-01-27T10:33:59;15.57;;;3.23;;
11960;SDS011;6040;49.358;11.140;2024-01-27T10:36:37;11.20;;;2.77;;
11960;SDS011;6040;49.358;11.140;2024-01-27T10:39:13;16.33;;;2.90;;
11960;SDS011;6040;49.358;11.140;2024-01-27T10:41:45;10.37;;;2.53;;
11960;SDS011;6040;49.358;11.140;2024-01-27T10:44:13;8.63;;;2.33;;
11960;SDS011;6040;49.358;11.140;2024-01-27T10:46:41;10.77;;;2.93;;
11960;SDS011;6040;49.358;11.140;2024-01-27T10:49:10;5.70;;;2.20;;
11960;SDS011;6040;49.358;11.140;2024-01-27T10:51:39;11.43;;;2.53;;
11960;SDS011;6040;49.358;11.140;2024-01-27T10:54:09;8.40;;;2.80;;
11960;SDS011;6040;49.358;11.140;2024-01-27T10:56:40;8.43;;;2.67;;
11960;SDS011;6040;49.358;11.140;2024-01-27T10:59:10;7.90;;;2.60;;
11960;SDS011;6040;49.358;11.140;2024-01-27T11:01:40;6.57;;;2.17;;
11960;SDS011;6040;49.358;11.140;2024-01-27T11:04:08;9.23;;;2.23;;
11960;SDS011;6040;49.358;11.140;2024-01-27T11:06:38;9.87;;;2.20;;
11960;SDS011;6040;49.358;11.140;2024-01-27T11:09:07;7.03;;;2.30;;
11960;SDS011;6040;49.358;11.140;2024-01-27T11:11:36;4.63;;;2.20;;
11960;SDS011;6040;49.358;11.140;2024-01-27T11:14:04;10.93;;;2.50;;
11960;SDS011;6040;49.358;11.140;2024-01-27T11:16:33;8.50;;;2.43;;
11960;SDS011;6040;49.358;11.140;2024-01-27T11:19:00;6.77;;;2.20;;
11960;SDS011;6040;49.358;11.140;2024-01-27T11:21:28;10.53;;;2.70;;
11960;SDS011;6040;49.358;11.140;2024-01-27T11:23:55;6.63;;;2.30;;
11960;SDS011;6040;49.358;11.140;2024-01-27T11:26:22;9.67;;;2.63;;
11960;SDS011;6040;49.358;11.140;2024-01-27T11:28:51;7.10;;;2.33;;
11960;SDS011;6040;49.358;11.140;2024-01-27T11:31:18;8.07;;;2.43;;
11960;SDS011;6040;49.358;11.140;2024-01-27T11:33:49;9.47;;;2.67;;
11960;SDS011;6040;49.358;11.140;2024-01-27T11:36:20;5.77;;;2.10;;
11960;SDS011;6040;49.358;11.140;2024-01-27T11:38:48;7.67;;;2.50;;
11960;SDS011;6040;49.358;11.140;2024-01-27T11:41:23;6.97;;;2.20;;
11960;SDS011;6040;49.358;11.140;2024-01-27T11:43:51;8.87;;;2.20;;
11960;SDS011;6040;49.358;11.140;2024-01-27T11:46:18;10.90;;;2.37;;
11960;SDS011;6040;49.358;11.140;2024-01-27T11:48:47;8.23;;;2.33;;
11960;SDS011;6040;49.358;11.140;2024-01-27T11:51:15;8.33;;;2.57;;
11960;SDS011;6040;49.358;11.140;2024-01-27T11:53:43;9.30;;;2.80;;
11960;SDS011;6040;49.358;11.140;2024-01-27T11:56:11;6.00;;;2.67;;
11960;SDS011;6040;49.358;11.140;2024-01-27T11:58:38;9.00;;;2.73;;
11960;SDS011;6040;49.358;11.140;2024-01-27T12:01:13;8.53;;;2.73;;
11960;SDS011;6040;49.358;11.140;2024-01-27T12:03:40;7.63;;;2.77;;
11960;SDS011;6040;49.358;11.140;2024-01-27T12:06:08;7.83;;;2.73;;
11960;SDS011;6040;49.358;11.140;2024-01-27T12:08:35;5.73;;;2.57;;
11960;SDS011;6040;49.358;11.140;2024-01-27T12:11:02;6.53;;;2.40;;
11960;SDS011;6040;49.358;11.140;2024-01-27T12:13:29;10.70;;;3.23;;
11960;SDS011;6040;49.358;11.140;2024-01-27T12:15:56;8.13;;;2.40;;
11960;SDS011;6040;49.358;11.140;2024-01-27T12:18:23;6.50;;;2.30;;
11960;SDS011;6040;49.358;11.140;2024-01-27T12:20:54;8.73;;;2.67;;
11960;SDS011;6040;49.358;11.140;2024-01-27T12:23:23;6.13;;;2.10;;
11960;SDS011;6040;49.358;11.140;2024-01-27T12:25:53;5.30;;;2.30;;
11960;SDS011;6040;49.358;11.140;2024-01-27T12:28:21;7.83;;;2.20;;
11960;SDS011;6040;49.358;11.140;2024-01-27T12:30:49;8.87;;;2.53;;
11960;SDS011;6040;49.358;11.140;2024-01-27T12:33:16;8.43;;;2.37;;
11960;SDS011;6040;49.358;11.140;2024-01-27T12:35:44;8.23;;;2.53;;
11960;SDS011;6040;49.358;11.140;2024-01-27T12:38:12;7.80;;;2.17;;
11960;SDS011;6040;49.358;11.140;2024-01-27T12:40:40;9.30;;;2.70;;
11960;SDS011;6040;49.358;11.140;2024-01-27T12:43:07;7.10;;;2.13;;
11960;SDS011;6040;49.358;11.140;2024-01-27T12:45:34;8.33;;;2.43;;
11960;SDS011;6040;49.358;11.140;2024-01-27T12:48:01;5.63;;;1.73;;
11960;SDS011;6040;49.358;11.140;2024-01-27T12:50:30;6.27;;;1.90;;
11960;SDS011;6040;49.358;11.140;2024-01-27T12:52:57;4.83;;;1.90;;
11960;SDS011;6040;49.358;11.140;2024-01-27T12:55:24;7.60;;;2.07;;
11960;SDS011;6040;49.358;11.140;2024-01-27T12:57:52;7.53;;;2.30;;
11960;SDS011;6040;49.358;11.140;2024-01-27T13:00:19;7.83;;;2.17;;
11960;SDS011;6040;49.358;11.140;2024-01-27T13:02:46;6.30;;;2.00;;
11960;SDS011;6040;49.358;11.140;2024-01-27T13:05:13;7.53;;;2.37;;
11960;SDS011;6040;49.358;11.140;2024-01-27T13:07:40;5.43;;;2.17;;
11960;SDS011;6040;49.358;11.140;2024-01-27T13:10:07;7.33;;;2.23;;
11960;SDS011;6040;49.358;11.140;2024-01-27T13:12:34;8.70;;;2.50;;
11960;SDS011;6040;49.358;11.140;2024-01-27T13:15:03;7.93;;;2.03;;
11960;SDS011;6040;49.358;11.140;2024-01-27T13:17:30;8.73;;;2.23;;
11960;SDS011;6040;49.358;11.140;2024-01-27T13:19:57;7.37;;;2.07;;
11960;SDS011;6040;49.358;11.140;2024-01-27T13:22:24;5.63;;;2.03;;
11960;SDS011;6040;49.358;11.140;2024-01-27T13:24:51;10.10;;;2.53;;
11960;SDS011;6040;49.358;11.140;2024-01-27T13:27:18;7.50;;;2.20;;
11960;SDS011;6040;49.358;11.140;2024-01-27T13:29:45;5.47;;;1.97;;
11960;SDS011;6040;49.358;11.140;2024-01-27T13:32:13;8.07;;;2.57;;
11960;SDS011;6040;49.358;11.140;2024-01-27T13:34:40;9.57;;;2.20;;
11960;SDS011;6040;49.358;11.140;2024-01-27T13:37:07;8.97;;;2.53;;
11960;SDS011;6040;49.358;11.140;2024-01-27T13:39:34;4.20;;;1.90;;
11960;SDS011;6040;49.358;11.140;2024-01-27T13:42:01;8.13;;;2.37;;
11960;SDS011;6040;49.358;11.140;2024-01-27T13:44:29;8.47;;;1.73;;
11960;SDS011;6040;49.358;11.140;2024-01-27T13:47:00;7.10;;;2.20;;
11960;SDS011;6040;49.358;11.140;2024-01-27T13:49:28;5.47;;;2.00;;
11960;SDS011;6040;49.358;11.140;2024-01-27T13:51:55;6.73;;;2.03;;
11960;SDS011;6040;49.358;11.140;2024-01-27T13:54:22;9.33;;;2.10;;
11960;SDS011;6040;49.358;11.140;2024-01-27T13:56:49;8.60;;;2.20;;
11960;SDS011;6040;49.358;11.140;2024-01-27T13:59:15;7.03;;;2.00;;
11960;SDS011;6040;49.358;11.140;2024-01-27T14:01:42;6.10;;;2.20;;
11960;SDS011;6040;49.358;11.140;2024-01-27T14:04:09;6.20;;;1.87;;
11960;SDS011;6040;49.358;11.140;2024-01-27T14:06:37;4.70;;;2.00;;
11960;SDS011;6040;49.358;11.140;2024-01-27T14:09:04;7.63;;;2.03;;
11960;SDS011;6040;49.358;11.140;2024-01-27T14:11:32;6.93;;;2.03;;
11960;SDS011;6040;49.358;11.140;2024-01-27T14:13:58;5.70;;;2.03;;
11960;SDS011;6040;49.358;11.140;2024-01-27T14:16:25;5.43;;;1.70;;
11960;SDS011;6040;49.358;11.140;2024-01-27T14:18:53;7.43;;;1.60;;
11960;SDS011;6040;49.358;11.140;2024-01-27T14:21:20;7.67;;;2.13;;
11960;SDS011;6040;49.358;11.140;2024-01-27T14:23:48;6.50;;;2.00;;
11960;SDS011;6040;49.358;11.140;2024-01-27T14:26:21;7.87;;;2.10;;
11960;SDS011;6040;49.358;11.140;2024-01-27T14:28:48;6.47;;;2.23;;
11960;SDS011;6040;49.358;11.140;2024-01-27T14:31:15;9.80;;;2.77;;
11960;SDS011;6040;49.358;11.140;2024-01-27T14:33:41;7.57;;;2.30;;
11960;SDS011;6040;49.358;11.140;2024-01-27T14:36:08;8.17;;;2.20;;
11960;SDS011;6040;49.358;11.140;2024-01-27T14:38:36;5.63;;;1.90;;
11960;SDS011;6040;49.358;11.140;2024-01-27T14:41:05;5.50;;;2.10;;
11960;SDS011;6040;49.358;11.140;2024-01-27T14:43:31;4.00;;;1.97;;
11960;SDS011;6040;49.358;11.140;2024-01-27T14:45:58;6.13;;;2.13;;
11960;SDS011;6040;49.358;11.140;2024-01-27T14:48:25;8.00;;;2.00;;